Time;durP1;ratioP1;P1;durP2;ratioP2;P2;SDS_P1;SDS_P2;PMS_P1;PMS_P2;Temp;Humidity;BMP_temperature;BMP_pressure;BME280_temperature;BME280_humidity;BME280_pressure;Samples;Min_cycle;Max_cycle;Signal;HPM_P1;HPM_P2
2023/02/22 00:00:43;;;;;;;12.88;4.47;;;3.90;98.00;;;;;;5016032;28;20033;-65
2023/02/22 00:03:13;;;;;;;9.63;4.38;;;4.00;98.00;;;;;;5022910;28;20092;-65
2023/02/22 00:05:40;;;;;;;8.82;4.28;;;4.20;98.00;;;;;;5016401;28;20029;-65
2023/02/22 00:08:10;;;;;;;7.00;3.92;;;4.20;98.00;;;;;;5020168;28;20029;-65
2023/02/22 00:10:37;;;;;;;6.88;3.72;;;4.40;98.00;;;;;;5027975;28;20049;-65
2023/02/22 00:13:07;;;;;;;6.53;3.65;;;4.60;98.00;;;;;;5016748;28;20423;-65
2023/02/22 00:15:33;;;;;;;8.05;3.70;;;5.00;98.00;;;;;;5020355;28;20053;-65
2023/02/22 00:17:58;;;;;;;5.68;3.10;;;5.20;98.00;;;;;;5014785;28;20054;-65
2023/02/22 00:20:24;;;;;;;7.75;3.53;;;5.50;98.00;;;;;;5016445;28;20032;-65
2023/02/22 00:22:50;;;;;;;6.05;3.15;;;5.70;98.00;;;;;;5018807;28;20026;-65
2023/02/22 00:25:18;;;;;;;8.48;3.20;;;5.90;97.60;;;;;;5015529;28;20079;-64
2023/02/22 00:27:46;;;;;;;6.88;3.40;;;6.00;97.20;;;;;;5022604;28;20022;-64
2023/02/22 00:30:18;;;;;;;7.15;3.88;;;6.00;96.50;;;;;;5025049;28;20021;-63
2023/02/22 00:32:45;;;;;;;7.10;3.47;;;5.70;96.20;;;;;;5010137;28;20038;-63
2023/02/22 00:35:11;;;;;;;10.93;4.45;;;5.30;96.60;;;;;;5010188;28;20037;-64
2023/02/22 00:37:40;;;;;;;9.43;4.20;;;5.10;97.30;;;;;;5026328;28;20362;-64
2023/02/22 00:40:10;;;;;;;8.65;4.78;;;5.00;98.00;;;;;;5016171;28;20522;-65
2023/02/22 00:42:36;;;;;;;8.05;4.25;;;4.70;97.90;;;;;;5015912;28;20053;-65
2023/02/22 00:45:03;;;;;;;7.88;4.22;;;4.60;98.00;;;;;;5022667;28;20029;-65
2023/02/22 00:47:29;;;;;;;7.22;3.88;;;4.50;98.00;;;;;;5016903;28;20323;-65
2023/02/22 00:49:55;;;;;;;7.65;4.70;;;4.40;98.00;;;;;;5020824;28;20037;-65
2023/02/22 00:52:20;;;;;;;8.60;4.00;;;4.50;98.00;;;;;;5016298;28;20105;-66
2023/02/22 00:54:46;;;;;;;6.72;4.05;;;4.30;98.00;;;;;;4996767;28;20081;-65
2023/02/22 00:57:12;;;;;;;6.47;3.88;;;4.20;98.00;;;;;;5003301;28;20111;-65
2023/02/22 00:59:37;;;;;;;8.45;4.30;;;4.10;98.00;;;;;;5025204;28;20018;-64
2023/02/22 01:02:03;;;;;;;8.07;4.10;;;3.90;98.00;;;;;;5029363;28;20029;-65
2023/02/22 01:04:28;;;;;;;8.57;4.25;;;3.80;98.00;;;;;;5030165;28;20018;-65
2023/02/22 01:06:54;;;;;;;7.88;4.47;;;3.70;98.00;;;;;;5018045;28;20026;-65
2023/02/22 01:09:21;;;;;;;8.82;4.78;;;3.80;98.00;;;;;;5017857;28;20080;-65
2023/02/22 01:11:54;;;;;;;9.05;4.68;;;4.00;98.00;;;;;;5015959;28;20038;-64
2023/02/22 01:14:19;;;;;;;9.10;4.40;;;4.00;98.00;;;;;;5008713;28;20036;-65
2023/02/22 01:16:45;;;;;;;8.70;3.95;;;4.00;98.00;;;;;;5013477;28;20370;-65
2023/02/22 01:19:11;;;;;;;7.32;4.43;;;4.00;98.00;;;;;;5003211;28;20034;-65
2023/02/22 01:21:38;;;;;;;7.82;3.67;;;4.00;98.00;;;;;;5015928;28;20030;-65
2023/02/22 01:24:04;;;;;;;7.80;3.58;;;4.00;98.00;;;;;;5015152;28;20382;-65
2023/02/22 01:26:29;;;;;;;8.40;3.58;;;4.10;98.00;;;;;;5014903;28;20021;-65
2023/02/22 01:28:57;;;;;;;7.65;3.70;;;4.10;98.00;;;;;;5006842;28;20465;-65
2023/02/22 01:31:22;;;;;;;5.95;3.50;;;4.10;98.00;;;;;;5016793;28;20038;-65
2023/02/22 01:33:49;;;;;;;8.02;4.10;;;4.10;98.00;;;;;;5030000;28;20033;-65
2023/02/22 01:36:17;;;;;;;6.95;3.70;;;4.10;98.00;;;;;;5031478;28;20365;-64
2023/02/22 01:38:44;;;;;;;6.25;3.58;;;4.00;98.00;;;;;;5022773;28;20034;-65
2023/02/22 01:41:10;;;;;;;10.65;3.92;;;4.00;98.00;;;;;;5014844;28;20160;-65
2023/02/22 01:43:36;;;;;;;6.32;3.38;;;3.80;98.00;;;;;;5015069;28;20033;-64
2023/02/22 01:46:04;;;;;;;7.72;3.38;;;3.60;98.00;;;;;;5019971;28;20323;-65
2023/02/22 01:48:40;;;;;;;7.18;3.38;;;3.40;98.00;;;;;;5015234;28;20372;-65
2023/02/22 01:51:18;;;;;;;5.63;3.30;;;3.30;97.70;;;;;;5028955;28;20028;-65
2023/02/22 01:53:53;;;;;;;6.43;3.30;;;3.30;96.90;;;;;;5026084;28;20029;-65
2023/02/22 01:56:20;;;;;;;5.72;3.00;;;3.40;96.70;;;;;;5028849;28;20038;-65
2023/02/22 01:58:51;;;;;;;6.63;3.00;;;3.50;96.50;;;;;;5020797;28;20037;-65
2023/02/22 02:01:20;;;;;;;6.72;3.30;;;3.60;96.80;;;;;;5012474;28;20018;-65
2023/02/22 02:03:49;;;;;;;7.53;3.45;;;3.50;96.70;;;;;;5016301;28;20032;-65
2023/02/22 02:06:15;;;;;;;5.80;2.85;;;3.60;96.60;;;;;;5012991;28;20080;-65
2023/02/22 02:08:50;;;;;;;6.45;3.40;;;3.60;96.20;;;;;;5034780;28;20304;-65
2023/02/22 02:11:20;;;;;;;4.93;2.70;;;3.60;96.60;;;;;;5027251;28;20041;-64
2023/02/22 02:13:49;;;;;;;5.97;2.88;;;3.60;96.90;;;;;;5001465;28;20428;-65
2023/02/22 02:16:15;;;;;;;5.82;2.78;;;3.60;96.70;;;;;;5018364;28;20342;-65
2023/02/22 02:18:41;;;;;;;5.50;2.95;;;3.60;96.30;;;;;;5017354;28;20033;-65
2023/02/22 02:21:37;;;;;;;4.80;2.58;;;3.70;96.40;;;;;;5009088;28;20022;-65
2023/02/22 02:24:40;;;;;;;5.82;2.90;;;3.70;96.40;;;;;;5020452;28;20028;-65
2023/02/22 02:27:18;;;;;;;5.00;2.60;;;3.70;96.50;;;;;;5027537;28;20025;-66
2023/02/22 02:29:53;;;;;;;7.32;2.70;;;3.70;96.90;;;;;;5011403;28;20407;-65
2023/02/22 02:32:25;;;;;;;6.40;2.90;;;3.70;97.00;;;;;;5019412;28;20453;-65
2023/02/22 02:35:10;;;;;;;5.88;3.15;;;3.70;97.50;;;;;;5015155;28;20580;-65
2023/02/22 02:38:03;;;;;;;8.57;3.25;;;3.60;96.80;;;;;;5014680;28;20389;-65
2023/02/22 02:40:40;;;;;;;6.07;3.10;;;3.70;96.60;;;;;;5014349;28;20025;-65
2023/02/22 02:43:13;;;;;;;8.65;3.25;;;3.80;97.20;;;;;;5013887;28;20049;-65
2023/02/22 02:45:56;;;;;;;6.57;2.97;;;3.90;97.60;;;;;;5021251;28;20355;-65
2023/02/22 02:48:26;;;;;;;6.35;3.67;;;3.90;97.90;;;;;;5027883;28;20122;-65
2023/02/22 02:50:56;;;;;;;7.07;3.20;;;3.80;97.60;;;;;;5021587;28;20049;-65
2023/02/22 02:53:39;;;;;;;7.63;3.22;;;3.90;97.50;;;;;;5016122;28;20026;-65
2023/02/22 02:56:06;;;;;;;6.15;3.67;;;3.90;98.00;;;;;;5009350;28;20042;-64
2023/02/22 02:58:32;;;;;;;7.03;3.10;;;3.80;98.00;;;;;;5020435;28;20026;-65
2023/02/22 03:01:03;;;;;;;5.82;3.00;;;3.80;98.00;;;;;;5028320;28;20058;-65
2023/02/22 03:03:40;;;;;;;5.10;2.72;;;3.80;97.80;;;;;;5023350;28;20030;-65
2023/02/22 03:06:18;;;;;;;6.30;2.72;;;3.80;98.00;;;;;;5027998;28;20471;-65
2023/02/22 03:08:52;;;;;;;7.15;4.00;;;3.60;97.80;;;;;;5014678;28;20335;-65
2023/02/22 03:11:23;;;;;;;7.53;3.83;;;3.50;97.10;;;;;;5022069;28;20026;-65
2023/02/22 03:14:10;;;;;;;6.70;4.03;;;3.60;97.30;;;;;;5008683;28;20073;-65
2023/02/22 03:16:55;;;;;;;8.05;3.17;;;3.60;97.20;;;;;;5019695;28;20044;-66
2023/02/22 03:19:33;;;;;;;5.40;2.83;;;3.50;96.80;;;;;;5016456;28;20037;-65
2023/02/22 03:22:12;;;;;;;5.80;3.33;;;3.40;96.90;;;;;;5014826;28;20055;-65
2023/02/22 03:24:54;;;;;;;5.75;2.75;;;3.40;96.40;;;;;;5018594;28;20030;-63
2023/02/22 03:27:26;;;;;;;5.05;2.70;;;3.50;97.40;;;;;;5015677;28;21775;-63
2023/02/22 03:29:59;;;;;;;5.43;3.10;;;3.40;97.40;;;;;;5003970;28;20022;-64
2023/02/22 03:32:29;;;;;;;5.38;2.65;;;3.30;97.20;;;;;;5012017;28;20113;-64
2023/02/22 03:35:03;;;;;;;5.63;2.88;;;3.10;96.50;;;;;;5009229;28;20101;-65
2023/02/22 03:37:36;;;;;;;5.68;2.83;;;3.10;95.90;;;;;;5019323;28;20038;-65
2023/02/22 03:40:13;;;;;;;4.43;2.20;;;3.00;96.00;;;;;;5022969;28;20449;-65
2023/02/22 03:42:46;;;;;;;4.07;2.15;;;2.90;95.60;;;;;;5015322;28;20076;-65
2023/02/22 03:45:14;;;;;;;4.72;2.28;;;2.90;94.60;;;;;;5017835;28;20028;-65
2023/02/22 03:47:44;;;;;;;6.28;2.22;;;2.80;94.80;;;;;;5014630;28;20109;-65
2023/02/22 03:50:18;;;;;;;5.32;2.20;;;2.90;94.10;;;;;;5008623;28;20053;-66
2023/02/22 03:52:46;;;;;;;4.10;2.20;;;2.90;93.70;;;;;;5014266;28;20434;-65
2023/02/22 03:55:12;;;;;;;5.47;2.10;;;2.80;94.50;;;;;;5019972;28;20512;-64
2023/02/22 03:57:42;;;;;;;4.15;2.15;;;2.80;94.40;;;;;;5016726;28;20030;-65
2023/02/22 04:00:11;;;;;;;5.97;2.30;;;2.70;94.10;;;;;;5013572;28;20080;-64
2023/02/22 04:02:36;;;;;;;5.43;2.00;;;2.70;93.50;;;;;;5014275;28;20200;-65
2023/02/22 04:05:03;;;;;;;3.85;2.00;;;2.70;92.80;;;;;;5025390;28;20462;-65
2023/02/22 04:07:28;;;;;;;4.07;1.83;;;2.80;92.30;;;;;;5027095;28;20427;-64
2023/02/22 04:09:54;;;;;;;7.47;2.03;;;2.90;93.00;;;;;;5024532;28;20080;-65
2023/02/22 04:12:22;;;;;;;5.07;1.90;;;2.90;93.50;;;;;;5018821;28;20076;-65
2023/02/22 04:14:48;;;;;;;4.97;2.10;;;3.10;93.70;;;;;;5022418;28;20084;-64
2023/02/22 04:17:16;;;;;;;6.60;2.08;;;3.10;94.40;;;;;;5020865;28;20033;-64
2023/02/22 04:19:44;;;;;;;5.45;1.92;;;3.20;95.20;;;;;;5027597;28;20410;-65
2023/02/22 04:22:10;;;;;;;4.30;1.88;;;3.20;96.20;;;;;;5005578;28;20033;-65
2023/02/22 04:24:36;;;;;;;3.55;1.98;;;3.10;96.00;;;;;;5009659;28;20423;-64
2023/02/22 04:27:02;;;;;;;4.70;1.90;;;3.00;95.90;;;;;;5015237;28;20367;-65
2023/02/22 04:29:28;;;;;;;4.75;2.25;;;3.00;95.60;;;;;;5024039;28;20382;-64
2023/02/22 04:31:54;;;;;;;3.75;1.92;;;3.00;96.30;;;;;;5013602;28;20443;-63
2023/02/22 04:34:20;;;;;;;5.65;2.08;;;3.00;96.20;;;;;;5013312;28;20034;-64
2023/02/22 04:36:46;;;;;;;4.03;1.90;;;2.80;96.10;;;;;;5000058;28;20113;-65
2023/02/22 04:39:12;;;;;;;4.90;2.00;;;2.70;95.40;;;;;;5005750;28;20033;-65
2023/02/22 04:41:37;;;;;;;6.80;2.10;;;2.60;94.90;;;;;;5008228;28;20105;-65
2023/02/22 04:44:03;;;;;;;5.15;1.98;;;2.70;94.40;;;;;;5022969;28;20022;-64
2023/02/22 04:46:30;;;;;;;5.32;2.78;;;2.80;94.20;;;;;;5012882;28;20080;-63
2023/02/22 04:48:56;;;;;;;4.97;2.10;;;2.90;93.80;;;;;;5012859;28;20042;-64
2023/02/22 04:51:24;;;;;;;5.93;2.40;;;2.90;95.70;;;;;;5020097;28;20379;-63
2023/02/22 04:53:52;;;;;;;3.05;1.90;;;2.80;96.10;;;;;;5015483;28;20036;-64
2023/02/22 04:56:21;;;;;;;5.82;2.30;;;2.80;95.70;;;;;;5010759;28;20037;-63
2023/02/22 04:58:50;;;;;;;3.95;1.92;;;2.60;96.00;;;;;;5010140;28;20040;-63
2023/02/22 05:01:20;;;;;;;3.85;1.90;;;2.60;95.20;;;;;;5010304;28;20022;-64
2023/02/22 05:03:45;;;;;;;4.45;1.95;;;2.50;94.90;;;;;;5013370;28;20121;-65
2023/02/22 05:06:11;;;;;;;5.13;2.78;;;2.50;94.40;;;;;;5010982;28;20105;-65
2023/02/22 05:08:37;;;;;;;3.70;1.95;;;2.50;94.40;;;;;;5000938;28;20061;-65
2023/02/22 05:11:05;;;;;;;5.10;2.00;;;2.50;94.10;;;;;;5010884;28;20370;-65
2023/02/22 05:13:33;;;;;;;4.05;1.92;;;2.50;93.50;;;;;;5013223;28;20026;-65
2023/02/22 05:15:59;;;;;;;4.55;2.33;;;2.50;93.40;;;;;;5010082;28;20037;-65
2023/02/22 05:18:24;;;;;;;4.45;2.00;;;2.50;92.70;;;;;;5015804;28;20026;-65
2023/02/22 05:20:50;;;;;;;4.45;2.00;;;2.50;93.00;;;;;;5015390;28;20040;-66
2023/02/22 05:23:15;;;;;;;4.65;2.35;;;2.60;93.30;;;;;;5014538;28;20122;-65
2023/02/22 05:25:41;;;;;;;4.68;2.08;;;2.60;93.30;;;;;;5011796;28;20021;-65
2023/02/22 05:28:11;;;;;;;6.15;2.28;;;2.70;93.00;;;;;;5015520;28;20034;-65
2023/02/22 05:30:40;;;;;;;5.95;2.35;;;2.80;93.20;;;;;;5011035;28;20038;-65
2023/02/22 05:33:10;;;;;;;6.95;2.33;;;2.80;93.70;;;;;;5013007;28;20030;-66
2023/02/22 05:35:36;;;;;;;5.07;2.17;;;2.90;94.10;;;;;;5015232;28;20021;-65
2023/02/22 05:38:02;;;;;;;5.63;2.95;;;3.00;97.00;;;;;;5016379;28;20439;-66
2023/02/22 05:40:29;;;;;;;4.82;1.85;;;2.80;96.70;;;;;;5009068;28;20030;-65
2023/02/22 05:42:57;;;;;;;5.40;1.90;;;2.80;95.20;;;;;;5001754;28;20291;-65
2023/02/22 05:45:25;;;;;;;5.60;2.03;;;2.90;94.50;;;;;;5001460;28;21721;-65
2023/02/22 05:47:51;;;;;;;6.63;2.35;;;3.00;95.10;;;;;;5005451;28;20038;-66
2023/02/22 05:50:18;;;;;;;7.15;1.80;;;3.00;96.00;;;;;;5009226;28;20079;-68
2023/02/22 05:52:44;;;;;;;5.38;1.90;;;2.90;95.40;;;;;;5015388;28;20070;-66
2023/02/22 05:55:16;;;;;;;5.22;2.40;;;3.00;95.30;;;;;;5009760;28;20073;-66
2023/02/22 05:57:41;;;;;;;5.68;2.30;;;3.00;95.80;;;;;;5003717;28;20038;-66
2023/02/22 06:00:08;;;;;;;4.78;2.17;;;3.00;95.80;;;;;;5008770;28;20037;-66
2023/02/22 06:02:40;;;;;;;4.47;2.40;;;3.00;95.50;;;;;;5019919;28;20105;-66
2023/02/22 06:05:06;;;;;;;6.22;2.67;;;3.10;95.80;;;;;;5017580;28;20040;-66
2023/02/22 06:07:31;;;;;;;5.05;2.67;;;3.10;95.80;;;;;;5019999;28;20034;-66
2023/02/22 06:09:57;;;;;;;3.88;1.95;;;3.10;96.00;;;;;;5019375;28;20075;-66
2023/02/22 06:12:22;;;;;;;4.68;1.90;;;3.20;96.00;;;;;;5020469;28;20105;-66
2023/02/22 06:14:48;;;;;;;3.65;2.00;;;3.30;95.90;;;;;;5017185;28;20114;-66
2023/02/22 06:17:15;;;;;;;3.90;1.80;;;3.40;96.50;;;;;;5018943;28;20195;-65
2023/02/22 06:19:40;;;;;;;5.32;2.20;;;3.50;97.30;;;;;;5018344;28;20033;-64
2023/02/22 06:22:07;;;;;;;7.03;2.40;;;3.60;97.50;;;;;;5014395;28;20326;-65
2023/02/22 06:24:32;;;;;;;4.93;2.50;;;3.60;98.00;;;;;;5013113;28;20127;-64
2023/02/22 06:27:00;;;;;;;5.85;2.50;;;3.60;97.80;;;;;;5010754;28;20434;-65
2023/02/22 06:29:27;;;;;;;7.55;3.10;;;3.70;98.00;;;;;;5011510;28;20050;-66
2023/02/22 06:31:53;;;;;;;5.55;2.67;;;3.80;97.90;;;;;;5012123;28;20029;-66
2023/02/22 06:34:20;;;;;;;6.22;2.72;;;4.00;98.00;;;;;;5016330;28;20182;-66
2023/02/22 06:36:47;;;;;;;4.28;2.38;;;4.10;98.00;;;;;;5015866;28;20523;-65
2023/02/22 06:39:14;;;;;;;4.78;2.40;;;4.10;98.00;;;;;;5016913;28;20423;-66
2023/02/22 06:41:41;;;;;;;5.50;3.08;;;4.20;98.00;;;;;;5019057;28;20018;-66
2023/02/22 06:44:07;;;;;;;5.15;2.85;;;4.30;98.00;;;;;;5012601;28;20060;-66
2023/02/22 06:46:36;;;;;;;7.13;4.18;;;4.50;98.00;;;;;;5006983;28;20030;-66
2023/02/22 06:49:02;;;;;;;7.40;4.00;;;4.60;98.00;;;;;;5018028;28;20026;-66
2023/02/22 06:51:28;;;;;;;7.75;4.18;;;4.70;98.00;;;;;;5018675;28;20029;-66
2023/02/22 06:53:54;;;;;;;8.18;4.03;;;4.90;98.00;;;;;;5018176;28;20041;-66
2023/02/22 06:56:19;;;;;;;6.00;3.30;;;5.00;98.00;;;;;;5018631;28;20034;-66
2023/02/22 06:58:45;;;;;;;10.85;4.50;;;5.10;98.00;;;;;;5018679;28;20045;-66
2023/02/22 07:01:11;;;;;;;7.80;4.47;;;5.20;98.00;;;;;;5017676;28;20026;-66
2023/02/22 07:03:37;;;;;;;7.05;3.80;;;5.20;98.00;;;;;;5017512;28;20315;-66
2023/02/22 07:06:06;;;;;;;8.73;3.67;;;5.40;98.00;;;;;;5000681;28;20017;-64
2023/02/22 07:08:32;;;;;;;23.17;10.55;;;5.40;98.00;;;;;;5017549;28;20307;-66
2023/02/22 07:10:57;;;;;;;10.63;5.13;;;5.60;98.00;;;;;;4999154;28;20034;-65
2023/02/22 07:13:23;;;;;;;20.15;7.80;;;5.70;98.00;;;;;;5010415;28;20038;-66
2023/02/22 07:15:52;;;;;;;40.38;14.93;;;5.80;98.00;;;;;;5013754;28;20057;-65
2023/02/22 07:18:17;;;;;;;30.05;11.73;;;5.90;98.00;;;;;;4999028;28;20035;-65
2023/02/22 07:20:43;;;;;;;32.33;14.77;;;6.00;98.00;;;;;;5000194;28;20022;-66
2023/02/22 07:23:08;;;;;;;40.42;17.90;;;6.10;98.00;;;;;;5011366;28;20031;-66
2023/02/22 07:25:34;;;;;;;26.50;13.15;;;6.30;98.00;;;;;;5013735;28;20057;-66
2023/02/22 07:28:00;;;;;;;26.17;12.45;;;6.40;98.00;;;;;;5017607;28;20331;-66
2023/02/22 07:30:32;;;;;;;21.25;10.50;;;6.60;97.90;;;;;;5016879;28;20484;-66
2023/02/22 07:33:00;;;;;;;47.08;22.30;;;6.70;97.70;;;;;;5018164;28;20061;-66
2023/02/22 07:35:28;;;;;;;27.65;12.65;;;7.00;97.60;;;;;;5017565;28;20429;-66
2023/02/22 07:37:54;;;;;;;33.13;13.52;;;7.00;96.80;;;;;;5007678;28;20030;-66
2023/02/22 07:40:19;;;;;;;31.17;13.15;;;7.10;96.90;;;;;;5005349;28;20041;-66
2023/02/22 07:42:58;;;;;;;33.63;15.68;;;7.00;97.20;;;;;;5017189;28;20030;-66
2023/02/22 07:45:27;;;;;;;39.03;18.50;;;6.80;97.10;;;;;;5016794;28;20399;-66
2023/02/22 07:47:53;;;;;;;24.63;10.57;;;6.70;97.00;;;;;;5047213;28;20026;-66
2023/02/22 07:50:21;;;;;;;38.50;16.00;;;6.50;96.70;;;;;;5007702;28;20030;-66
2023/02/22 07:52:50;;;;;;;44.50;16.17;;;6.40;97.30;;;;;;5004098;28;20026;-66
2023/02/22 07:55:18;;;;;;;26.98;11.25;;;6.30;97.60;;;;;;4998220;28;20205;-66
2023/02/22 07:57:47;;;;;;;16.95;9.50;;;6.30;97.30;;;;;;5013221;28;20053;-66
2023/02/22 08:00:19;;;;;;;17.23;9.23;;;6.30;96.50;;;;;;5006835;28;20108;-66
2023/02/22 08:02:45;;;;;;;18.52;9.80;;;6.30;96.70;;;;;;5002277;28;20049;-66
2023/02/22 08:05:11;;;;;;;13.45;7.97;;;6.40;96.20;;;;;;4997877;28;20023;-66
2023/02/22 08:07:37;;;;;;;15.60;8.75;;;6.50;96.10;;;;;;5010823;28;20030;-66
2023/02/22 08:10:05;;;;;;;20.95;10.38;;;6.70;96.00;;;;;;5017187;28;20033;-67
2023/02/22 08:12:32;;;;;;;19.20;10.55;;;6.80;95.80;;;;;;5017423;28;20030;-66
2023/02/22 08:14:58;;;;;;;18.73;9.43;;;6.90;96.60;;;;;;5016282;28;20037;-66
2023/02/22 08:17:23;;;;;;;18.90;8.70;;;6.90;96.80;;;;;;5011969;28;20424;-66
2023/02/22 08:19:49;;;;;;;17.20;8.48;;;7.00;97.00;;;;;;5001379;28;20027;-66
2023/02/22 08:22:14;;;;;;;32.33;12.02;;;7.20;96.90;;;;;;5012318;28;20024;-66
2023/02/22 08:24:40;;;;;;;26.33;10.70;;;7.50;96.50;;;;;;5016535;28;20030;-66
2023/02/22 08:27:05;;;;;;;19.58;8.88;;;8.00;96.40;;;;;;5011306;28;20081;-66
2023/02/22 08:29:32;;;;;;;24.45;11.85;;;9.00;94.00;;;;;;5011499;28;20036;-66
2023/02/22 08:31:59;;;;;;;20.30;13.55;;;9.70;89.10;;;;;;5017057;28;20021;-66
2023/02/22 08:34:25;;;;;;;24.35;13.25;;;10.10;86.70;;;;;;5016776;28;20026;-66
2023/02/22 08:36:50;;;;;;;17.52;9.75;;;10.10;86.10;;;;;;5009973;28;20037;-66
2023/02/22 08:39:16;;;;;;;15.73;9.48;;;10.00;86.50;;;;;;5010355;28;20386;-66
2023/02/22 08:41:44;;;;;;;15.55;8.60;;;10.30;86.50;;;;;;5017013;28;20046;-66
2023/02/22 08:44:12;;;;;;;11.95;7.43;;;10.40;85.30;;;;;;5016014;28;20095;-66
2023/02/22 08:46:38;;;;;;;15.48;6.95;;;10.80;84.30;;;;;;5014630;28;20033;-66
2023/02/22 08:49:06;;;;;;;14.55;6.65;;;11.20;83.10;;;;;;5001103;28;20048;-66
2023/02/22 08:51:36;;;;;;;12.20;6.63;;;11.30;81.70;;;;;;4998400;28;20037;-66
2023/02/22 08:54:02;;;;;;;15.75;8.52;;;11.20;81.80;;;;;;5015589;28;20172;-66
2023/02/22 08:56:29;;;;;;;16.75;9.05;;;11.20;82.30;;;;;;5007373;28;20109;-66
2023/02/22 08:58:56;;;;;;;22.27;9.90;;;11.20;82.20;;;;;;5015369;28;20038;-67
2023/02/22 09:01:23;;;;;;;21.70;9.60;;;11.50;82.20;;;;;;5015512;28;20363;-66
2023/02/22 09:03:49;;;;;;;22.35;9.40;;;12.20;80.70;;;;;;5016497;28;20088;-66
2023/02/22 09:06:15;;;;;;;30.50;9.48;;;12.10;79.90;;;;;;5015552;28;20025;-66
2023/02/22 09:08:44;;;;;;;37.28;10.52;;;12.10;79.90;;;;;;5015612;28;20057;-66
2023/02/22 09:11:09;;;;;;;23.13;7.85;;;12.50;79.80;;;;;;5016494;28;20415;-66
2023/02/22 09:13:35;;;;;;;18.98;7.93;;;12.90;78.70;;;;;;5019770;28;20084;-65
2023/02/22 09:16:00;;;;;;;25.73;8.18;;;13.20;77.80;;;;;;5014583;28;20046;-65
2023/02/22 09:18:27;;;;;;;22.85;7.70;;;13.20;77.10;;;;;;5015454;28;20665;-64
2023/02/22 09:20:55;;;;;;;15.73;8.32;;;13.00;79.00;;;;;;5016173;28;20057;-65
2023/02/22 09:23:21;;;;;;;12.63;6.82;;;13.30;78.60;;;;;;5011571;28;20040;-67
2023/02/22 09:25:48;;;;;;;14.68;7.25;;;13.60;77.50;;;;;;5005040;28;20105;-67
2023/02/22 09:28:14;;;;;;;13.55;7.25;;;13.60;77.30;;;;;;5010291;28;20031;-66
2023/02/22 09:30:39;;;;;;;11.25;6.18;;;13.80;77.20;;;;;;5005711;28;20042;-66
2023/02/22 09:33:10;;;;;;;15.15;5.82;;;14.40;76.20;;;;;;5016319;28;20030;-67
2023/02/22 09:35:40;;;;;;;12.50;6.85;;;15.10;75.10;;;;;;5017974;28;20038;-67
2023/02/22 09:38:07;;;;;;;14.32;6.10;;;15.60;74.10;;;;;;5014543;28;20042;-66
2023/02/22 09:40:42;;;;;;;17.80;6.60;;;15.70;72.50;;;;;;5015366;28;20026;-66
2023/02/22 09:43:39;;;;;;;15.45;6.55;;;15.70;72.20;;;;;;5016326;28;20033;-66
2023/02/22 09:46:37;;;;;;;17.38;6.30;;;15.50;72.50;;;;;;5016415;28;20025;-66
2023/02/22 09:49:15;;;;;;;68.20;11.98;;;15.10;72.40;;;;;;5000609;28;20018;-67
2023/02/22 09:51:40;;;;;;;15.45;6.22;;;14.70;73.70;;;;;;5012814;28;20034;-66
2023/02/22 09:54:16;;;;;;;13.23;5.07;;;14.40;74.10;;;;;;5015054;28;20030;-66
2023/02/22 09:56:45;;;;;;;10.98;4.38;;;14.10;75.00;;;;;;5015991;28;20018;-65
2023/02/22 09:59:14;;;;;;;7.40;4.38;;;13.80;75.80;;;;;;5015248;28;20057;-66
2023/02/22 10:01:46;;;;;;;8.82;3.65;;;13.80;76.30;;;;;;5014945;28;20052;-66
2023/02/22 10:04:30;;;;;;;6.20;3.50;;;13.50;76.40;;;;;;5016019;28;20125;-66
2023/02/22 10:07:10;;;;;;;9.13;4.43;;;13.70;76.30;;;;;;5016022;28;20026;-66
2023/02/22 10:09:41;;;;;;;8.20;3.33;;;14.10;75.50;;;;;;5014174;28;20037;-66
2023/02/22 10:12:18;;;;;;;6.47;3.60;;;14.50;75.60;;;;;;5015992;28;20030;-66
2023/02/22 10:15:26;;;;;;;7.60;4.10;;;15.10;74.20;;;;;;5014655;28;20030;-66
2023/02/22 10:18:37;;;;;;;9.10;3.90;;;14.70;74.00;;;;;;5008606;28;20100;-67
2023/02/22 10:21:29;;;;;;;9.85;4.35;;;14.10;75.10;;;;;;4996361;28;20019;-66
2023/02/22 10:24:17;;;;;;;10.77;4.70;;;13.90;76.20;;;;;;5009654;28;20038;-66
2023/02/22 10:26:45;;;;;;;11.90;4.47;;;13.90;76.50;;;;;;5015813;28;20022;-66
2023/02/22 10:29:14;;;;;;;10.00;4.88;;;13.90;76.70;;;;;;5011292;28;20041;-66
2023/02/22 10:31:48;;;;;;;11.10;4.72;;;13.80;76.90;;;;;;4994891;28;20026;-66
2023/02/22 10:34:19;;;;;;;10.95;5.03;;;14.00;76.20;;;;;;4996080;28;20112;-66
2023/02/22 10:36:48;;;;;;;14.32;6.50;;;14.20;76.00;;;;;;4995978;28;20353;-66
2023/02/22 10:39:32;;;;;;;16.15;5.47;;;14.90;75.70;;;;;;5012831;28;20023;-66
2023/02/22 10:42:04;;;;;;;;;;;15.70;73.20;;;;;;5008877;28;20029;-66
2023/02/22 10:44:37;;;;;;;7.70;4.20;;;16.40;71.10;;;;;;5018404;28;19905;-65
2023/02/22 10:47:06;;;;;;;9.73;5.10;;;16.70;70.10;;;;;;5019195;28;20076;-66
2023/02/22 10:49:52;;;;;;;8.75;4.07;;;16.70;69.70;;;;;;5015941;28;20364;-66
2023/02/22 10:52:28;;;;;;;7.55;3.92;;;16.90;68.50;;;;;;4999530;28;20026;-66
2023/02/22 10:54:57;;;;;;;6.53;3.47;;;17.10;68.10;;;;;;5009699;28;20343;-66
2023/02/22 10:57:35;;;;;;;4.60;2.40;;;17.20;66.60;;;;;;5018878;28;20061;-66
2023/02/22 11:00:25;;;;;;;5.32;2.78;;;16.50;65.80;;;;;;5011027;28;20110;-66
2023/02/22 11:02:57;;;;;;;7.70;3.08;;;16.30;68.10;;;;;;4999273;28;20022;-66
2023/02/22 11:05:38;;;;;;;7.88;3.35;;;16.90;65.90;;;;;;4999375;28;20050;-66
2023/02/22 11:08:26;;;;;;;7.93;3.55;;;17.30;66.10;;;;;;4999089;28;20026;-66
2023/02/22 11:10:59;;;;;;;7.18;3.28;;;17.60;65.60;;;;;;5005191;28;20045;-66
2023/02/22 11:13:26;;;;;;;10.30;3.88;;;17.70;64.80;;;;;;5018062;28;20244;-66
2023/02/22 11:15:53;;;;;;;6.47;3.65;;;18.10;63.60;;;;;;5017546;28;20033;-66
2023/02/22 11:18:26;;;;;;;6.32;3.42;;;18.40;63.20;;;;;;5018492;28;20045;-66
2023/02/22 11:20:59;;;;;;;10.52;6.95;;;18.80;61.80;;;;;;5005463;28;20467;-66
2023/02/22 11:23:25;;;;;;;10.27;6.40;;;18.50;60.90;;;;;;4999024;28;20030;-66
2023/02/22 11:26:01;;;;;;;10.73;6.65;;;18.00;62.20;;;;;;5003973;28;20037;-66
2023/02/22 11:28:32;;;;;;;10.75;6.95;;;18.30;62.50;;;;;;5014515;28;20038;-66
2023/02/22 11:31:21;;;;;;;10.38;6.35;;;18.40;62.20;;;;;;5010798;28;20034;-66
2023/02/22 11:33:54;;;;;;;9.77;5.50;;;18.80;61.40;;;;;;5018300;28;20152;-66
2023/02/22 11:36:31;;;;;;;10.65;5.38;;;18.40;61.80;;;;;;5018280;28;20319;-66
2023/02/22 11:38:59;;;;;;;9.18;5.75;;;18.10;62.60;;;;;;5001216;28;20353;-66
2023/02/22 11:41:29;;;;;;;9.98;6.38;;;18.80;61.20;;;;;;5011186;28;20652;-66
2023/02/22 11:44:21;;;;;;;11.63;6.90;;;19.10;61.10;;;;;;5013269;28;20036;-66
2023/02/22 11:46:47;;;;;;;10.55;6.70;;;18.70;61.30;;;;;;4997503;28;20026;-67
2023/02/22 11:49:16;;;;;;;11.02;6.70;;;17.90;62.40;;;;;;4998484;28;20419;-66
2023/02/22 11:52:06;;;;;;;9.90;6.22;;;17.10;64.40;;;;;;5014557;28;20042;-66
2023/02/22 11:54:56;;;;;;;9.80;6.22;;;17.40;64.40;;;;;;5012058;28;20438;-66
2023/02/22 11:57:38;;;;;;;13.75;7.30;;;18.20;62.80;;;;;;5018084;28;20026;-66
2023/02/22 12:00:23;;;;;;;13.10;7.47;;;19.20;61.30;;;;;;5011589;28;20034;-66
2023/02/22 12:03:25;;;;;;;15.05;9.63;;;20.10;59.60;;;;;;4998042;28;20076;-66
2023/02/22 12:06:07;;;;;;;19.48;10.45;;;19.60;60.40;;;;;;4998129;28;20030;-65
2023/02/22 12:08:41;;;;;;;14.13;9.02;;;19.50;60.20;;;;;;5005650;28;20060;-65
2023/02/22 12:11:17;;;;;;;15.25;9.60;;;19.50;60.40;;;;;;5004197;28;20332;-65
2023/02/22 12:14:07;;;;;;;13.48;8.80;;;19.40;60.20;;;;;;4998257;28;20431;-64
2023/02/22 12:17:29;;;;;;;13.85;8.13;;;19.40;60.90;;;;;;4996764;28;20030;-65
2023/02/22 12:20:30;;;;;;;14.25;8.98;;;19.10;61.40;;;;;;4976271;28;20038;-66
2023/02/22 12:23:28;;;;;;;13.35;8.35;;;19.00;61.10;;;;;;5016464;28;20415;-66
2023/02/22 12:26:12;;;;;;;14.45;8.98;;;17.80;63.90;;;;;;5016969;28;20044;-66
2023/02/22 12:28:58;;;;;;;19.20;10.32;;;18.00;63.50;;;;;;5009540;28;20089;-66
2023/02/22 12:31:35;;;;;;;16.52;10.27;;;17.90;63.30;;;;;;4996290;28;20030;-66
2023/02/22 12:34:06;;;;;;;15.52;9.75;;;18.00;63.10;;;;;;4997626;28;20019;-66
2023/02/22 12:36:49;;;;;;;16.35;10.20;;;18.00;63.00;;;;;;4997655;28;20312;-66
2023/02/22 12:39:30;;;;;;;14.38;8.75;;;17.70;63.20;;;;;;5014312;28;20446;-66
2023/02/22 12:41:58;;;;;;;22.00;9.48;;;17.80;62.10;;;;;;5016861;28;20030;-66
2023/02/22 12:44:30;;;;;;;14.40;8.43;;;17.80;61.70;;;;;;5017206;28;20022;-66
2023/02/22 12:46:58;;;;;;;14.57;8.50;;;17.40;62.60;;;;;;5016588;28;20025;-66
2023/02/22 12:49:45;;;;;;;11.15;7.05;;;17.60;62.80;;;;;;5015504;28;20065;-66
2023/02/22 12:52:36;;;;;;;11.13;6.88;;;17.80;61.30;;;;;;5003638;28;20034;-66
2023/02/22 12:55:38;;;;;;;10.15;6.55;;;17.50;60.80;;;;;;5016667;28;20117;-66
2023/02/22 12:58:35;;;;;;;11.52;6.32;;;17.60;62.30;;;;;;5017403;28;20037;-66
2023/02/22 13:01:20;;;;;;;15.20;7.63;;;17.50;61.10;;;;;;5011706;28;20323;-66
2023/02/22 13:03:46;;;;;;;13.82;7.03;;;16.90;62.60;;;;;;5001908;28;20030;-66
2023/02/22 13:06:53;;;;;;;11.23;6.80;;;16.80;63.40;;;;;;5004857;28;20067;-66
2023/02/22 13:09:27;;;;;;;10.88;6.30;;;16.90;62.90;;;;;;4998851;28;20045;-66